Time;durP1;ratioP1;P1;durP2;ratioP2;P2;SDS_P1;SDS_P2;PMS_P1;PMS_P2;Temp;Humidity;BMP_temperature;BMP_pressure;BME280_temperature;BME280_humidity;BME280_pressure;Samples;Min_cycle;Max_cycle;Signal;HPM_P1;HPM_P2
2021/09/23 00:01:53;;;;;;;17.00;9.75;;;;;;;6.78;100.00;100564.12;1744132;82;21004;-53
2021/09/23 00:04:34;;;;;;;14.65;10.30;;;;;;;6.78;100.00;100568.41;1744108;81;20952;-54
2021/09/23 00:07:01;;;;;;;11.90;10.10;;;;;;;6.76;100.00;100561.98;1744155;82;21756;-54
2021/09/23 00:09:28;;;;;;;10.88;9.23;;;;;;;6.76;100.00;100565.85;1716704;82;20912;-51
2021/09/23 00:11:56;;;;;;;10.23;9.10;;;;;;;6.75;100.00;100569.28;1744170;82;20901;-53
2021/09/23 00:14:22;;;;;;;11.00;9.98;;;;;;;6.74;100.00;100565.00;1744345;82;20973;-53
2021/09/23 00:16:50;;;;;;;12.28;9.83;;;;;;;6.70;100.00;100565.41;1744230;82;20979;-52
2021/09/23 00:19:18;;;;;;;10.05;8.98;;;;;;;6.70;100.00;100564.58;1744110;82;21101;-53
2021/09/23 00:21:46;;;;;;;20.20;8.95;;;;;;;6.68;100.00;100568.42;1744082;82;20952;-53
2021/09/23 00:24:12;;;;;;;9.48;8.58;;;;;;;6.68;100.00;100566.27;1744245;82;20956;-52
2021/09/23 00:26:38;;;;;;;10.43;9.43;;;;;;;6.69;100.00;100561.55;1738994;82;21480;-54
2021/09/23 00:29:05;;;;;;;13.05;9.83;;;;;;;6.67;100.00;100558.12;1738946;81;20952;-52
2021/09/23 00:31:32;;;;;;;14.90;8.88;;;;;;;6.68;100.00;100561.12;1738912;81;21029;-52
2021/09/23 00:33:59;;;;;;;11.63;9.15;;;;;;;6.68;100.00;100563.27;1739037;82;21477;-53
2021/09/23 00:36:27;;;;;;;9.03;8.23;;;;;;;6.70;100.00;100560.72;1738975;82;21620;-52
2021/09/23 00:38:55;;;;;;;14.65;9.50;;;;;;;6.70;100.00;100562.00;1738944;82;21525;-52
2021/09/23 00:41:21;;;;;;;11.08;9.43;;;;;;;6.69;100.00;100561.55;1738974;81;20886;-53
2021/09/23 00:43:48;;;;;;;12.20;8.40;;;;;;;6.70;100.00;100563.29;1738913;81;21229;-53
2021/09/23 00:46:14;;;;;;;9.38;8.48;;;;;;;6.70;100.00;100560.27;1738709;82;20968;-52
2021/09/23 00:48:45;;;;;;;9.55;8.68;;;;;;;6.71;100.00;100561.98;1738913;82;21442;-53
2021/09/23 00:51:11;;;;;;;10.63;9.60;;;;;;;6.72;100.00;100566.72;1738983;81;20944;-55
2021/09/23 00:53:38;;;;;;;11.28;10.00;;;;;;;6.72;100.00;100561.57;1738801;81;20952;-54
2021/09/23 00:56:07;;;;;;;10.25;8.93;;;;;;;6.72;100.00;100565.43;1720044;82;20929;-54
2021/09/23 00:58:37;;;;;;;13.75;8.20;;;;;;;6.73;100.00;100564.12;1738755;81;21106;-52
2021/09/23 01:01:03;;;;;;;8.60;7.83;;;;;;;6.74;100.00;100558.12;1738848;82;20968;-53
2021/09/23 01:03:30;;;;;;;9.75;8.85;;;;;;;6.74;100.00;100559.41;1738836;81;21075;-51
2021/09/23 01:06:00;;;;;;;12.58;8.15;;;;;;;6.74;100.00;100552.13;1738807;82;20901;-51
2021/09/23 01:08:29;;;;;;;10.28;8.63;;;;;;;6.72;100.00;100560.28;1738995;82;20952;-54
2021/09/23 01:10:58;;;;;;;12.03;7.67;;;;;;;6.71;100.00;100559.86;1738916;82;20945;-53
2021/09/23 01:13:28;;;;;;;10.32;8.50;;;;;;;6.70;100.00;100556.86;1739066;81;20919;-53
2021/09/23 01:16:02;;;;;;;13.28;9.40;;;;;;;6.69;100.00;100557.69;1737782;81;20975;-51
2021/09/23 01:18:35;;;;;;;9.28;8.38;;;;;;;6.69;100.00;100558.97;1741917;81;21007;-51
2021/09/23 01:21:05;;;;;;;8.65;7.90;;;;;;;6.69;100.00;100555.11;1738845;82;21158;-55
2021/09/23 01:23:44;;;;;;;8.45;7.53;;;;;;;6.68;100.00;100555.97;1763731;81;20952;-52
2021/09/23 01:26:14;;;;;;;12.03;8.15;;;;;;;6.66;100.00;100561.55;1738702;81;21015;-52
2021/09/23 01:28:43;;;;;;;14.00;8.88;;;;;;;6.63;100.00;100557.70;1738688;82;20921;-52
2021/09/23 01:31:10;;;;;;;12.33;9.28;;;;;;;6.61;100.00;100552.57;1763879;81;21035;-54
2021/09/23 01:33:38;;;;;;;12.85;9.98;;;;;;;6.58;100.00;100550.84;1738843;81;21222;-53
2021/09/23 01:36:04;;;;;;;22.35;9.68;;;;;;;6.59;100.00;100543.55;1738723;81;21533;-53
2021/09/23 01:38:31;;;;;;;15.63;9.30;;;;;;;6.59;100.00;100541.42;1738840;81;20983;-54
2021/09/23 01:40:58;;;;;;;12.18;8.70;;;;;;;6.60;100.00;100546.55;1738736;82;21514;-52
2021/09/23 01:43:26;;;;;;;12.90;10.13;;;;;;;6.60;100.00;100543.14;1738863;82;21024;-53
2021/09/23 01:45:53;;;;;;;15.58;9.60;;;;;;;6.61;100.00;100543.56;1738670;82;21830;-51
2021/09/23 01:48:19;;;;;;;15.35;8.80;;;;;;;6.62;100.00;100545.28;1738767;81;20944;-54
2021/09/23 01:50:49;;;;;;;16.95;9.70;;;;;;;6.61;100.00;100543.56;1738777;82;20948;-54
2021/09/23 01:53:16;;;;;;;9.98;8.93;;;;;;;6.60;100.00;100540.12;1764009;81;21038;-51
2021/09/23 01:55:44;;;;;;;18.25;9.53;;;;;;;6.59;100.00;100542.72;1738856;82;20948;-52
2021/09/23 01:58:12;;;;;;;15.00;9.40;;;;;;;6.57;100.00;100545.27;1763946;81;21677;-55
2021/09/23 02:00:40;;;;;;;15.18;9.23;;;;;;;6.56;100.00;100547.42;1738766;82;20944;-52
2021/09/23 02:03:08;;;;;;;13.45;8.75;;;;;;;6.56;100.00;100548.70;1738782;82;20960;-54
2021/09/23 02:05:55;;;;;;;11.90;8.98;;;;;;;6.55;100.00;100545.70;1738808;82;21050;-55
2021/09/23 02:08:23;;;;;;;10.95;9.28;;;;;;;6.55;100.00;100545.70;1738849;82;21018;-55
2021/09/23 02:10:50;;;;;;;9.85;8.95;;;;;;;6.54;100.00;100542.70;1738905;82;21149;-54
2021/09/23 02:13:19;;;;;;;13.22;9.40;;;;;;;6.54;100.00;100540.55;1763662;81;20948;-52
2021/09/23 02:15:46;;;;;;;13.08;9.48;;;;;;;6.53;100.00;100547.84;1738789;82;20976;-54
2021/09/23 02:18:14;;;;;;;9.63;8.63;;;;;;;6.53;100.00;100548.70;1738723;82;21030;-54
2021/09/23 02:20:42;;;;;;;10.75;8.83;;;;;;;6.55;100.00;100544.83;1738816;82;21000;-52
2021/09/23 02:23:10;;;;;;;11.28;9.23;;;;;;;6.56;100.00;100543.97;1738747;82;21949;-52
2021/09/23 02:25:40;;;;;;;11.35;8.75;;;;;;;6.53;100.00;100547.84;1740362;82;21091;-53
2021/09/23 02:28:08;;;;;;;10.63;8.93;;;;;;;6.52;100.00;100546.13;1744189;82;21621;-53
2021/09/23 02:30:35;;;;;;;10.43;8.60;;;;;;;6.51;100.00;100555.57;1744084;82;21081;-53
2021/09/23 02:33:02;;;;;;;10.85;7.70;;;;;;;6.50;100.00;100551.28;1744038;82;20932;-53
2021/09/23 02:35:29;;;;;;;10.25;8.13;;;;;;;6.46;100.00;100550.42;1744124;82;21234;-54
2021/09/23 02:37:57;;;;;;;9.15;8.28;;;;;;;6.45;100.00;100551.72;1743997;82;20936;-55
2021/09/23 02:41:31;;;;;;;10.65;8.80;;;;;;;6.46;100.00;100552.15;1797566;79;22591;-54
2021/09/23 02:43:59;;;;;;;11.68;8.83;;;;;;;6.43;100.00;100557.27;1757303;81;20975;-52
2021/09/23 02:46:26;;;;;;;9.95;8.43;;;;;;;6.44;100.00;100556.41;1757203;81;21896;-54
2021/09/23 02:48:55;;;;;;;12.13;9.80;;;;;;;6.44;100.00;100559.84;1757331;81;20956;-51
2021/09/23 02:51:23;;;;;;;10.23;9.23;;;;;;;6.45;100.00;100554.30;1757440;81;21588;-52
2021/09/23 02:53:50;;;;;;;13.13;9.15;;;;;;;6.45;100.00;100549.15;1757456;81;20979;-55
2021/09/23 02:56:17;;;;;;;11.50;9.05;;;;;;;6.47;100.00;100552.58;1757389;81;20909;-52
2021/09/23 02:58:47;;;;;;;10.43;8.95;;;;;;;6.50;100.00;100548.71;1707225;83;21080;-54
2021/09/23 03:01:15;;;;;;;11.00;9.90;;;;;;;6.52;100.00;100552.14;1723741;83;20978;-54
2021/09/23 03:03:42;;;;;;;12.28;10.00;;;;;;;6.54;100.00;100550.42;1723793;83;21492;-53
2021/09/23 03:06:09;;;;;;;12.30;9.75;;;;;;;6.54;100.00;100549.14;1683899;84;20984;-53
2021/09/23 03:08:36;;;;;;;10.43;9.08;;;;;;;6.53;100.00;100551.28;1710298;84;20996;-54
2021/09/23 03:11:04;;;;;;;11.90;8.80;;;;;;;6.55;100.00;100554.70;1721159;83;22276;-53
2021/09/23 03:13:31;;;;;;;11.18;9.63;;;;;;;6.55;100.00;100549.56;1721152;83;21548;-53
2021/09/23 03:15:57;;;;;;;10.98;9.35;;;;;;;6.55;100.00;100555.99;1721189;83;20999;-54
2021/09/23 03:18:25;;;;;;;10.45;9.10;;;;;;;6.54;100.00;100555.98;1721291;83;20992;-55
2021/09/23 03:20:52;;;;;;;10.13;9.23;;;;;;;6.54;100.00;100555.98;1721228;83;20983;-52
2021/09/23 03:23:20;;;;;;;10.72;8.28;;;;;;;6.53;100.00;100557.71;1710185;83;20999;-51
2021/09/23 03:25:48;;;;;;;10.82;9.03;;;;;;;6.53;100.00;100560.70;1708319;84;21047;-53
2021/09/23 03:28:17;;;;;;;12.47;10.18;;;;;;;6.52;100.00;100558.98;1702402;83;21027;-53
2021/09/23 03:30:44;;;;;;;10.75;9.65;;;;;;;6.50;100.00;100561.98;1708390;84;20983;-51
2021/09/23 03:33:10;;;;;;;13.88;9.50;;;;;;;6.49;100.00;100561.14;1708597;84;20936;-54
2021/09/23 03:35:37;;;;;;;9.50;8.60;;;;;;;6.50;100.00;100559.41;1708488;84;21096;-53
2021/09/23 03:38:05;;;;;;;10.25;9.13;;;;;;;6.49;100.00;100561.14;1715727;82;20999;-55
2021/09/23 03:40:32;;;;;;;10.60;9.50;;;;;;;6.49;100.00;100560.27;1712390;83;21005;-53
2021/09/23 03:42:58;;;;;;;9.85;8.95;;;;;;;6.47;100.00;100559.00;1721475;83;20959;-53
2021/09/23 03:45:26;;;;;;;10.08;8.78;;;;;;;6.45;100.00;100560.72;1692578;84;20994;-53
2021/09/23 03:47:53;;;;;;;9.45;7.75;;;;;;;6.44;100.00;100558.98;1692585;83;21149;-52
2021/09/23 03:50:20;;;;;;;10.28;8.98;;;;;;;6.43;100.00;100558.55;1692571;83;21520;-55
2021/09/23 03:52:47;;;;;;;13.83;9.88;;;;;;;6.42;100.00;100560.69;1692002;83;20962;-53
2021/09/23 03:55:16;;;;;;;15.08;8.60;;;;;;;6.41;100.00;100560.27;1720963;83;21485;-54
2021/09/23 03:57:45;;;;;;;13.70;8.70;;;;;;;6.42;100.00;100560.28;1720980;83;21619;-54
2021/09/23 04:00:15;;;;;;;9.13;8.23;;;;;;;6.44;100.00;100561.55;1692105;84;21509;-53
2021/09/23 04:02:42;;;;;;;9.65;8.55;;;;;;;6.44;100.00;100560.26;1691987;84;20954;-55
2021/09/23 04:05:09;;;;;;;8.68;7.78;;;;;;;6.45;100.00;100566.70;1694073;83;21432;-52
2021/09/23 04:07:38;;;;;;;8.03;7.30;;;;;;;6.47;100.00;100564.15;1694688;83;21532;-54
2021/09/23 04:10:07;;;;;;;11.22;8.18;;;;;;;6.52;100.00;100566.70;1691936;84;20942;-53
2021/09/23 04:12:36;;;;;;;8.55;7.72;;;;;;;6.54;100.00;100572.70;1692060;84;20972;-52
2021/09/23 04:15:06;;;;;;;8.05;7.35;;;;;;;6.55;100.00;100565.00;1666094;83;21002;-52
2021/09/23 04:17:34;;;;;;;7.90;7.17;;;;;;;6.59;100.00;100568.44;1721029;82;20931;-53
2021/09/23 04:20:02;;;;;;;8.40;7.60;;;;;;;6.58;100.00;100567.56;1720960;82;20950;-52
2021/09/23 04:22:31;;;;;;;8.53;7.72;;;;;;;6.56;100.00;100568.00;1692113;83;20978;-52
2021/09/23 04:24:59;;;;;;;8.83;8.13;;;;;;;6.57;100.00;100570.16;1665970;83;21250;-51
2021/09/23 04:27:27;;;;;;;9.33;7.80;;;;;;;6.61;100.00;100570.58;1720903;83;21014;-54
2021/09/23 04:29:55;;;;;;;10.38;7.20;;;;;;;6.65;100.00;100575.27;1720871;83;20927;-53
2021/09/23 04:32:22;;;;;;;13.72;7.05;;;;;;;6.68;100.00;100577.42;1692023;84;21003;-53
2021/09/23 04:34:50;;;;;;;13.13;7.58;;;;;;;6.70;100.00;100578.28;1691978;84;20958;-52
2021/09/23 04:37:17;;;;;;;9.73;8.15;;;;;;;6.72;100.00;100580.86;1692061;83;21146;-52
2021/09/23 04:39:46;;;;;;;13.75;7.72;;;;;;;6.74;100.00;100580.44;1691486;83;21007;-53
2021/09/23 04:42:14;;;;;;;8.78;6.92;;;;;;;6.77;100.00;100588.14;1691984;84;20951;-55
2021/09/23 04:44:41;;;;;;;7.05;6.47;;;;;;;6.80;100.00;100589.84;1693984;83;20975;-55
2021/09/23 04:47:09;;;;;;;7.12;6.53;;;;;;;6.80;100.00;100584.28;1720870;83;21014;-52
2021/09/23 04:49:40;;;;;;;7.15;6.53;;;;;;;6.79;100.00;100590.28;1692121;84;21508;-54
2021/09/23 04:52:08;;;;;;;7.53;6.83;;;;;;;6.79;100.00;100586.42;1692120;83;21013;-51
2021/09/23 04:54:36;;;;;;;7.67;6.42;;;;;;;6.78;100.00;100583.43;1694043;83;21034;-55
2021/09/23 04:57:03;;;;;;;12.60;7.12;;;;;;;6.78;100.00;100584.72;1720954;83;21508;-53
2021/09/23 04:59:30;;;;;;;8.00;7.28;;;;;;;6.81;100.00;100582.13;1665957;84;20958;-52
2021/09/23 05:01:57;;;;;;;8.83;7.00;;;;;;;6.85;100.00;100581.27;1692000;84;21153;-52
2021/09/23 05:04:24;;;;;;;10.40;7.15;;;;;;;6.87;100.00;100583.41;1666042;84;21065;-52
2021/09/23 05:06:53;;;;;;;8.35;6.40;;;;;;;6.92;100.00;100583.83;1720798;83;21018;-55
2021/09/23 05:09:18;;;;;;;11.05;6.53;;;;;;;6.95;100.00;100582.12;1720978;82;21029;-51
2021/09/23 05:11:46;;;;;;;11.80;5.97;;;;;;;6.97;100.00;100584.25;1692107;83;20987;-52
2021/09/23 05:14:17;;;;;;;8.35;6.70;;;;;;;6.98;100.00;100586.41;1692082;84;21100;-51
2021/09/23 05:16:44;;;;;;;7.55;6.53;;;;;;;6.97;100.00;100582.97;1720908;83;21519;-52
2021/09/23 05:19:14;;;;;;;16.02;5.40;;;;;;;6.97;100.00;100580.39;1720996;82;20942;-51
2021/09/23 05:21:41;;;;;;;7.55;5.85;;;;;;;6.96;100.00;100586.41;1691947;84;20998;-54
2021/09/23 05:24:12;;;;;;;12.43;6.72;;;;;;;6.96;100.00;100581.25;1692096;84;21469;-55
2021/09/23 05:26:39;;;;;;;8.25;6.78;;;;;;;6.99;100.00;100581.25;1691992;83;21186;-55
2021/09/23 05:29:08;;;;;;;16.55;9.43;;;;;;;7.02;100.00;100576.54;1720806;82;20940;-54
2021/09/23 05:31:35;;;;;;;10.10;8.63;;;;;;;7.05;100.00;100574.80;1720895;83;21520;-54
2021/09/23 05:34:03;;;;;;;12.63;10.75;;;;;;;7.11;100.00;100577.80;1691831;84;21002;-54
2021/09/23 05:36:31;;;;;;;8.98;8.08;;;;;;;7.15;100.00;100581.23;1692011;84;21097;-54
2021/09/23 05:38:59;;;;;;;8.35;6.80;;;;;;;7.19;100.00;100585.06;1692000;84;21161;-52
2021/09/23 05:41:27;;;;;;;7.67;6.50;;;;;;;7.24;100.00;100583.77;1720782;83;20916;-52
2021/09/23 05:43:53;;;;;;;8.18;6.47;;;;;;;7.28;100.00;100582.06;1720818;83;20990;-51
2021/09/23 05:46:19;;;;;;;7.10;6.40;;;;;;;7.28;100.00;100581.61;1691904;84;20963;-55
2021/09/23 05:48:46;;;;;;;8.40;6.62;;;;;;;7.31;100.00;100585.91;1691851;84;21014;-52
2021/09/23 05:51:12;;;;;;;10.78;5.87;;;;;;;7.33;100.00;100581.61;1691890;84;22271;-55
2021/09/23 05:53:38;;;;;;;5.97;5.58;;;;;;;7.41;100.00;100590.16;1691979;83;21536;-55
2021/09/23 05:56:05;;;;;;;22.42;5.80;;;;;;;7.44;100.00;100589.30;1691952;84;20911;-55
2021/09/23 05:58:31;;;;;;;16.15;5.90;;;;;;;7.45;100.00;100586.73;1692078;84;20920;-54
2021/09/23 06:00:58;;;;;;;7.42;5.60;;;;;;;7.46;100.00;100588.45;1720719;83;20967;-52
2021/09/23 06:03:25;;;;;;;6.33;5.70;;;;;;;7.51;100.00;100590.14;1720987;83;21196;-54
2021/09/23 06:05:51;;;;;;;7.87;5.37;;;;;;;7.56;100.00;100592.27;1691900;84;20938;-54
2021/09/23 06:08:18;;;;;;;7.05;6.37;;;;;;;7.59;100.00;100590.55;1691934;83;21004;-52
2021/09/23 06:10:46;;;;;;;6.53;5.83;;;;;;;7.61;100.00;100593.10;1720905;83;20981;-54
2021/09/23 06:13:13;;;;;;;6.92;5.33;;;;;;;7.64;100.00;100592.25;1721054;83;21014;-53
2021/09/23 06:15:41;;;;;;;5.90;5.40;;;;;;;7.71;100.00;100595.21;1692130;84;20969;-54
2021/09/23 06:18:07;;;;;;;10.20;5.40;;;;;;;7.76;100.00;100594.34;1691780;84;20958;-52
2021/09/23 06:20:37;;;;;;;9.80;5.78;;;;;;;7.83;100.00;100595.59;1720890;83;22094;-51
2021/09/23 06:23:03;;;;;;;9.68;5.37;;;;;;;7.86;100.00;100596.44;1720860;82;21556;-51
2021/09/23 06:25:31;;;;;;;7.58;5.33;;;;;;;7.92;100.00;100592.95;1692085;84;21603;-51
2021/09/23 06:27:59;;;;;;;7.35;4.70;;;;;;;7.99;100.00;100593.37;1692060;83;20994;-55
2021/09/23 06:30:27;;;;;;;6.15;4.85;;;;;;;8.10;100.00;100596.30;1720813;83;20899;-54
2021/09/23 06:32:55;;;;;;;6.08;5.20;;;;;;;8.19;100.00;100599.69;1720929;83;20990;-51
2021/09/23 06:35:21;;;;;;;7.12;5.05;;;;;;;8.24;100.00;100598.38;1692148;84;21014;-54
2021/09/23 06:37:50;;;;;;;11.55;5.67;;;;;;;8.28;100.00;100593.62;1692061;84;21516;-54
2021/09/23 06:40:16;;;;;;;6.47;5.40;;;;;;;8.30;100.00;100597.04;1694237;83;21076;-51
2021/09/23 06:42:42;;;;;;;4.62;4.12;;;;;;;8.32;100.00;100592.73;1684475;83;20944;-52
2021/09/23 06:45:11;;;;;;;7.00;5.00;;;;;;;8.41;100.00;100594.80;1721588;82;20964;-54
2021/09/23 06:47:37;;;;;;;6.35;5.05;;;;;;;8.49;100.00;100598.20;1749045;82;20967;-50
2021/09/23 06:50:05;;;;;;;6.10;5.60;;;;;;;8.58;100.00;100597.28;1748957;81;21011;-51
2021/09/23 06:52:33;;;;;;;4.78;4.37;;;;;;;8.65;100.00;100595.52;1748990;80;20932;-53
2021/09/23 06:55:01;;;;;;;5.17;4.78;;;;;;;8.73;100.00;100592.46;1721287;82;21035;-54
2021/09/23 06:57:28;;;;;;;4.72;4.33;;;;;;;8.80;99.52;100588.08;1749052;82;21544;-53
2021/09/23 07:00:14;;;;;;;4.90;4.50;;;;;;;8.86;98.98;100591.92;1748992;81;21015;-51
2021/09/23 07:02:44;;;;;;;4.47;4.08;;;;;;;8.87;98.48;100591.89;1745163;82;21596;-53
2021/09/23 07:05:12;;;;;;;5.53;4.97;;;;;;;8.87;98.33;100589.30;1722049;82;21198;-53
2021/09/23 07:07:41;;;;;;;5.53;5.00;;;;;;;8.93;98.38;100592.27;1745486;82;20952;-51
2021/09/23 07:10:09;;;;;;;6.05;4.67;;;;;;;8.99;97.94;100590.08;1749108;82;20975;-52
2021/09/23 07:12:37;;;;;;;5.67;5.17;;;;;;;8.99;96.78;100595.24;1749082;82;20952;-52
2021/09/23 07:15:07;;;;;;;8.38;5.35;;;;;;;9.04;96.64;100592.17;1749173;82;20983;-52
2021/09/23 07:17:34;;;;;;;5.87;5.35;;;;;;;9.09;96.06;100595.98;1738351;82;21884;-55
2021/09/23 07:20:03;;;;;;;5.00;4.65;;;;;;;9.13;96.07;100593.81;1748997;82;21587;-52
2021/09/23 07:22:31;;;;;;;5.85;5.20;;;;;;;9.19;94.91;100592.00;1749007;82;20983;-53
2021/09/23 07:24:57;;;;;;;5.50;5.00;;;;;;;9.25;94.54;100592.83;1748932;82;20979;-53
2021/09/23 07:27:24;;;;;;;6.17;5.58;;;;;;;9.31;93.96;100587.59;1749218;80;21390;-52
2021/09/23 07:29:53;;;;;;;7.78;5.47;;;;;;;9.40;93.58;100587.47;1749306;82;20991;-52
2021/09/23 07:32:19;;;;;;;5.87;5.42;;;;;;;9.57;92.67;100591.59;1749134;82;21015;-54
2021/09/23 07:34:46;;;;;;;7.53;5.10;;;;;;;9.69;92.25;100594.02;1749147;80;20983;-54
2021/09/23 07:37:13;;;;;;;5.03;4.62;;;;;;;9.83;91.05;100583.50;1721323;82;21514;-53
2021/09/23 07:39:41;;;;;;;5.95;5.35;;;;;;;9.98;90.08;100581.59;1749257;80;20920;-52
2021/09/23 07:42:10;;;;;;;5.15;4.75;;;;;;;10.14;89.77;100586.97;1740980;82;21016;-55
2021/09/23 07:44:40;;;;;;;5.72;5.33;;;;;;;10.25;87.14;100576.89;1735449;82;20945;-54
2021/09/23 07:47:06;;;;;;;4.95;4.45;;;;;;;10.25;86.10;100581.64;1735224;81;21455;-53
2021/09/23 07:49:32;;;;;;;4.72;4.33;;;;;;;10.32;85.88;100579.37;1714351;82;20976;-54
2021/09/23 07:52:00;;;;;;;5.97;4.50;;;;;;;10.40;85.40;100575.80;1735234;81;21554;-51
2021/09/23 07:54:28;;;;;;;4.60;4.30;;;;;;;10.58;86.14;100571.66;1735148;82;20980;-53
2021/09/23 07:56:56;;;;;;;4.42;4.03;;;;;;;10.76;85.21;100567.89;1735221;81;20937;-54
2021/09/23 07:59:24;;;;;;;4.95;4.47;;;;;;;10.87;84.09;100566.88;1735227;82;20944;-54
2021/09/23 08:01:53;;;;;;;4.62;4.22;;;;;;;10.86;82.38;100569.89;1735236;82;20964;-55
2021/09/23 08:04:20;;;;;;;5.78;4.55;;;;;;;10.85;82.06;100570.77;1735128;82;20948;-55
2021/09/23 08:06:47;;;;;;;5.00;4.70;;;;;;;10.82;82.00;100564.36;1735173;82;21812;-54
2021/09/23 08:09:15;;;;;;;5.55;5.05;;;;;;;10.75;82.04;100571.83;1735013;82;20972;-52
2021/09/23 08:11:43;;;;;;;5.12;4.30;;;;;;;10.62;81.50;100574.61;1735242;81;20932;-52
2021/09/23 08:14:20;;;;;;;12.82;4.67;;;;;;;10.48;81.32;100572.67;1734513;82;21467;-55
2021/09/23 08:16:51;;;;;;;4.87;4.55;;;;;;;10.25;81.60;100574.30;1734219;82;21029;-55
2021/09/23 08:19:20;;;;;;;5.70;5.30;;;;;;;10.05;82.50;100567.27;1732203;81;21105;-54
2021/09/23 08:22:06;;;;;;;7.20;5.22;;;;;;;9.93;83.29;100572.59;1714052;82;20985;-52
2021/09/23 08:24:34;;;;;;;5.50;5.12;;;;;;;9.82;83.97;100574.48;1735247;82;20997;-54
2021/09/23 08:27:00;;;;;;;11.25;5.25;;;;;;;9.78;84.10;100570.66;1735077;82;22103;-54
2021/09/23 08:29:27;;;;;;;6.70;6.15;;;;;;;9.73;83.84;100572.45;1735221;82;21431;-56
2021/09/23 08:31:55;;;;;;;7.28;6.58;;;;;;;9.68;83.82;100575.51;1735225;82;21131;-54
2021/09/23 08:34:22;;;;;;;6.72;6.10;;;;;;;9.68;84.11;100570.79;1735167;82;21039;-54
2021/09/23 08:36:49;;;;;;;10.13;6.12;;;;;;;9.69;83.91;100576.37;1714240;82;20969;-57
2021/09/23 08:39:16;;;;;;;5.50;5.00;;;;;;;9.79;85.14;100574.08;1735241;82;21243;-54
2021/09/23 08:41:43;;;;;;;6.22;5.58;;;;;;;9.95;84.96;100573.42;1737200;81;21028;-52
2021/09/23 08:44:10;;;;;;;6.65;5.92;;;;;;;9.95;83.85;100569.55;1743280;82;21293;-52
2021/09/23 08:46:38;;;;;;;6.08;5.47;;;;;;;9.82;83.60;100570.16;1743338;82;20960;-52
2021/09/23 08:49:05;;;;;;;7.12;6.53;;;;;;;9.76;84.60;100568.53;1743332;81;21465;-55
2021/09/23 08:51:36;;;;;;;9.08;5.95;;;;;;;9.79;84.83;100565.03;1742412;82;20905;-56
2021/09/23 08:54:04;;;;;;;8.70;7.17;;;;;;;9.76;84.78;100568.53;1743382;82;21039;-53
2021/09/23 08:56:30;;;;;;;8.25;6.83;;;;;;;9.66;84.79;100572.09;1743155;82;21454;-57
2021/09/23 08:58:57;;;;;;;9.05;8.20;;;;;;;9.62;85.26;100566.13;1743300;82;21502;-55
2021/09/23 09:01:29;;;;;;;7.95;7.25;;;;;;;9.46;84.32;100569.30;1743355;82;20929;-52
2021/09/23 09:04:03;;;;;;;69.55;20.37;;;;;;;9.41;84.81;100570.26;1742862;81;20980;-53
2021/09/23 09:06:53;;;;;;;14.60;8.93;;;;;;;9.39;85.33;100574.14;1713352;82;20971;-52
2021/09/23 09:09:38;;;;;;;28.00;20.27;;;;;;;9.40;85.88;100568.09;1743505;82;21158;-54
2021/09/23 09:12:11;;;;;;;18.77;15.95;;;;;;;9.36;85.54;100570.75;1685918;82;20949;-51
2021/09/23 09:14:42;;;;;;;11.15;9.53;;;;;;;9.30;85.83;100571.67;1713937;82;21003;-54
2021/09/23 09:17:08;;;;;;;7.70;7.00;;;;;;;9.27;86.26;100572.55;1738501;82;21023;-51
2021/09/23 09:19:50;;;;;;;8.33;7.50;;;;;;;9.26;86.61;100568.70;1743419;82;20983;-55
2021/09/23 09:22:24;;;;;;;8.28;7.58;;;;;;;9.22;86.87;100569.59;1743208;81;20932;-54
2021/09/23 09:25:04;;;;;;;8.00;7.30;;;;;;;9.14;86.88;100569.24;1743246;82;20956;-53
2021/09/23 09:27:38;;;;;;;7.67;6.97;;;;;;;9.09;87.44;100574.90;1743312;82;20984;-52
2021/09/23 09:30:17;;;;;;;7.50;6.85;;;;;;;9.03;87.45;100568.52;1743417;81;21005;-52
2021/09/23 09:32:49;;;;;;;6.90;6.30;;;;;;;9.03;87.95;100563.34;1743263;82;20991;-52
2021/09/23 09:35:26;;;;;;;6.95;6.35;;;;;;;9.06;88.42;100559.44;1743297;82;21149;-54
2021/09/23 09:37:54;;;;;;;7.92;6.40;;;;;;;9.10;88.96;100566.28;1743188;82;20932;-55
2021/09/23 09:40:27;;;;;;;5.42;4.92;;;;;;;9.18;88.47;100559.74;1743276;82;21454;-55
2021/09/23 09:42:54;;;;;;;7.55;5.87;;;;;;;9.26;88.16;100563.54;1746714;82;20944;-55
2021/09/23 09:45:26;;;;;;;7.45;5.97;;;;;;;9.25;87.98;100565.25;1749170;81;21337;-53
2021/09/23 09:47:53;;;;;;;6.20;5.70;;;;;;;9.25;87.72;100563.13;1721493;82;21887;-52
2021/09/23 09:50:24;;;;;;;6.60;6.00;;;;;;;9.24;87.67;100565.28;1749047;82;21606;-55
2021/09/23 09:53:01;;;;;;;9.05;5.97;;;;;;;9.21;87.76;100564.88;1741666;82;20983;-53
2021/09/23 09:55:32;;;;;;;10.18;5.92;;;;;;;9.22;87.79;100561.41;1749058;82;20999;-53
2021/09/23 09:57:59;;;;;;;137.10;38.40;;;;;;;9.24;88.15;100564.00;1749104;82;20920;-53
2021/09/23 10:00:27;;;;;;;53.90;16.95;;;;;;;9.28;88.55;100567.80;1749183;82;21102;-52
2021/09/23 10:02:54;;;;;;;9.70;5.22;;;;;;;9.28;88.48;100569.55;1749126;82;21007;-53
2021/09/23 10:05:23;;;;;;;4.70;4.20;;;;;;;9.26;88.29;100570.00;1748262;82;21027;-55
2021/09/23 10:07:55;;;;;;;5.72;5.12;;;;;;;9.28;87.84;100569.09;1749148;82;21018;-55
2021/09/23 10:10:25;;;;;;;6.70;4.78;;;;;;;9.33;88.25;100566.47;1713991;82;20936;-54
2021/09/23 10:12:56;;;;;;;5.00;4.50;;;;;;;9.40;87.64;100566.80;1749135;82;21015;-52
2021/09/23 10:15:25;;;;;;;4.83;4.35;;;;;;;9.46;86.83;100575.77;1749006;82;21549;-54
2021/09/23 10:17:55;;;;;;;5.40;3.95;;;;;;;9.51;85.47;100574.88;1749189;82;21989;-53
2021/09/23 10:20:24;;;;;;;4.60;4.28;;;;;;;9.61;86.01;100575.17;1749105;82;20940;-52
2021/09/23 10:22:53;;;;;;;4.28;3.98;;;;;;;9.74;85.76;100577.16;1749138;82;20944;-53
2021/09/23 10:25:30;;;;;;;4.58;3.55;;;;;;;9.85;84.80;100576.60;1749068;82;21835;-53
2021/09/23 10:27:58;;;;;;;7.50;4.97;;;;;;;9.84;83.23;100575.31;1749221;82;20975;-53
2021/09/23 10:30:30;;;;;;;4.92;4.53;;;;;;;9.74;82.60;100575.87;1721449;82;20983;-53
2021/09/23 10:32:58;;;;;;;9.58;6.47;;;;;;;9.71;82.12;100579.34;1749133;82;21536;-52
2021/09/23 10:35:25;;;;;;;5.15;4.70;;;;;;;9.66;83.04;100577.25;1749233;82;20975;-55
2021/09/23 10:38:00;;;;;;;5.20;4.70;;;;;;;9.73;83.95;100578.91;1722363;82;21521;-54
2021/09/23 10:40:28;;;;;;;4.60;4.30;;;;;;;9.78;82.54;100584.00;1721597;82;20938;-55
2021/09/23 10:43:00;;;;;;;5.17;4.67;;;;;;;9.78;82.51;100586.59;1725207;81;20936;-52
2021/09/23 10:45:27;;;;;;;4.72;4.42;;;;;;;9.85;82.81;100580.91;1728872;81;20932;-52
2021/09/23 10:48:00;;;;;;;7.42;4.40;;;;;;;9.92;82.38;100581.23;1756908;81;20971;-52
2021/09/23 10:50:30;;;;;;;5.20;4.80;;;;;;;9.91;82.02;100578.23;1756873;81;21071;-57
2021/09/23 10:52:58;;;;;;;4.97;4.47;;;;;;;9.99;82.79;100577.70;1728794;81;20971;-54
2021/09/23 10:55:26;;;;;;;5.67;3.67;;;;;;;10.13;83.26;100571.04;1756859;81;20975;-53
2021/09/23 10:57:53;;;;;;;4.05;3.75;;;;;;;10.30;83.24;100579.83;1756836;81;21050;-52
2021/09/23 11:00:27;;;;;;;5.17;3.27;;;;;;;10.37;82.28;100581.02;1756971;81;21002;-54
2021/09/23 11:02:54;;;;;;;4.28;3.98;;;;;;;10.25;82.03;100582.94;1757005;81;21104;-53
2021/09/23 11:05:21;;;;;;;4.10;3.70;;;;;;;10.13;81.11;100577.93;1756988;81;21564;-55
2021/09/23 11:07:51;;;;;;;6.08;3.47;;;;;;;9.96;80.08;100581.59;1728895;81;21421;-55
2021/09/23 11:10:22;;;;;;;3.83;3.60;;;;;;;9.84;80.87;100586.50;1756967;81;20963;-52
2021/09/23 11:12:58;;;;;;;4.15;3.80;;;;;;;9.77;81.23;100586.17;1757060;81;21548;-52
2021/09/23 11:15:28;;;;;;;4.00;3.60;;;;;;;9.66;81.88;100587.59;1757151;81;21143;-54
2021/09/23 11:17:59;;;;;;;4.35;3.98;;;;;;;9.69;82.87;100588.01;1756954;81;21552;-54
2021/09/23 11:20:29;;;;;;;7.12;3.90;;;;;;;9.81;83.75;100587.00;1757043;81;20955;-54
2021/09/23 11:22:59;;;;;;;4.60;3.90;;;;;;;9.94;84.25;100582.52;1728928;81;21540;-53
2021/09/23 11:25:38;;;;;;;4.90;4.50;;;;;;;10.05;83.64;100585.37;1757114;81;20991;-52
2021/09/23 11:28:06;;;;;;;4.67;4.30;;;;;;;10.11;82.38;100588.31;1730911;81;21156;-54
2021/09/23 11:30:35;;;;;;;4.50;4.15;;;;;;;10.11;82.52;100583.56;1729241;81;20987;-52
2021/09/23 11:33:11;;;;;;;4.40;4.10;;;;;;;10.11;83.04;100589.61;1756967;81;20932;-54